This is the latest recevied weather packets stored in our database for station/object WMKN. If no packets are shown the sender has not sent any weather packets the latest 10 day(s).
| Time | Temp. | Humidity | Pressure | Rain* | Wind** | Luminosity | Snow |
|---|---|---|---|---|---|---|---|
| 1777878642 | 33.89° C | 59% | 1008 hPa | - | - | - | - |
| 1777875033 | 32.78° C | 66% | 1009 hPa | - | - | - | - |
| 1777871432 | 33.89° C | 59% | 1010 hPa | - | - | - | - |
| 1777867832 | 33.89° C | 59% | 1011 hPa | - | - | - | - |
| 1777864241 | 32.78° C | 62% | 1011 hPa | - | - | - | - |
| 1777860632 | 30.56° C | 70% | 1011 hPa | - | - | - | - |
| 1777857035 | 28.89° C | 79% | 1010 hPa | - | - | - | - |
| 1777853431 | 25.56° C | 94% | 1009 hPa | - | - | - | - |
| 1777849831 | 25.56° C | 94% | 1009 hPa | - | - | - | - |
| 1777846243 | 25.56° C | 94% | 1008 hPa | - | - | - | - |
| 1777842633 | 26.67° C | 88% | 1008 hPa | - | - | - | - |
| 1777839031 | 26.67° C | 88% | 1008 hPa | - | - | - | - |
| 1777835432 | 26.67° C | 88% | 1008 hPa | - | - | - | - |
| 1777831831 | 27.78° C | 83% | 1009 hPa | - | - | - | - |
| 1777828242 | 27.78° C | 88% | 1010 hPa | - | - | - | - |
| 1777824631 | 27.78° C | 88% | 1010 hPa | - | - | - | - |
| 1777821035 | 28.89° C | 79% | 1009 hPa | - | - | - | - |
| 1777817427 | 30° C | 79% | 1009 hPa | - | - | - | - |
| 1777813827 | 30° C | 74% | 1008 hPa | - | - | - | - |
| 1777810243 | 30° C | 74% | 1007 hPa | - | - | - | - |
| 1777806634 | 30.56° C | 70% | 1007 hPa | - | - | - | - |
| 1777803030 | 31.67° C | 70% | 1006 hPa | - | - | - | - |
| 1777799430 | 31.67° C | 70% | 1006 hPa | - | - | - | - |
| 1777795843 | 32.78° C | 66% | 1006 hPa | - | - | - | - |
| 1777792231 | 33.89° C | 63% | 1007 hPa | - | - | - | - |
* Rain since midnight (hover to see other rain measurements)
** Current wind speed in m/s (hover to see current wind gust speed)